Time;durP1;ratioP1;P1;durP2;ratioP2;P2;SDS_P1;SDS_P2;PMS_P1;PMS_P2;Temp;Humidity;BMP_temperature;BMP_pressure;BME280_temperature;BME280_humidity;BME280_pressure;Samples;Min_cycle;Max_cycle;Signal;HPM_P1;HPM_P2
2023/10/29 00:00:06;;;;;;;2.45;1.90;;;;;;;12.15;64.26;95452.44;4791380;29;20487;-80
2023/10/29 00:02:33;;;;;;;4.22;1.92;;;;;;;12.17;64.72;95460.88;4790417;29;20573;-79
2023/10/29 00:05:01;;;;;;;3.75;1.80;;;;;;;12.23;69.13;95460.00;4790183;29;20058;-80
2023/10/29 00:07:29;;;;;;;3.50;1.67;;;;;;;12.24;65.95;95456.34;4790374;29;20089;-79
2023/10/29 00:09:56;;;;;;;4.00;1.90;;;;;;;12.25;65.01;95457.19;4790151;29;20058;-79
2023/10/29 00:12:24;;;;;;;3.58;1.90;;;;;;;12.27;65.21;95460.38;4790886;29;20150;-79
2023/10/29 00:14:52;;;;;;;2.78;1.80;;;;;;;12.25;64.24;95463.19;4790439;29;20088;-79
2023/10/29 00:17:21;;;;;;;3.53;1.92;;;;;;;12.23;63.73;95454.78;4790309;29;20059;-79
2023/10/29 00:19:50;;;;;;;3.35;1.83;;;;;;;12.20;63.76;95443.94;4789358;29;20052;-80
2023/10/29 00:22:17;;;;;;;2.70;1.73;;;;;;;12.20;65.03;95457.84;4790172;29;20095;-79
2023/10/29 00:24:45;;;;;;;3.83;1.92;;;;;;;12.19;63.95;95443.16;4789554;29;20063;-80
2023/10/29 00:27:13;;;;;;;6.28;2.10;;;;;;;12.18;63.72;95445.97;4789791;29;20060;-79
2023/10/29 00:29:41;;;;;;;2.63;1.92;;;;;;;12.15;63.90;95440.19;4789220;29;20062;-79
2023/10/29 00:32:09;;;;;;;3.35;2.15;;;;;;;12.15;64.25;95439.38;4790817;29;20059;-79
2023/10/29 00:34:38;;;;;;;3.75;2.20;;;;;;;12.15;65.33;95426.31;4789925;29;20055;-79
2023/10/29 00:37:06;;;;;;;3.63;2.10;;;;;;;12.15;64.41;95432.34;4789241;29;20059;-80
2023/10/29 00:39:33;;;;;;;3.00;1.80;;;;;;;12.19;68.29;95432.69;4789150;29;20047;-79
2023/10/29 00:42:01;;;;;;;4.55;2.45;;;;;;;12.20;67.03;95420.41;4789608;29;20055;-80
2023/10/29 00:44:29;;;;;;;1.95;1.70;;;;;;;12.20;68.03;95436.94;4789478;29;20087;-80
2023/10/29 00:46:57;;;;;;;3.05;1.90;;;;;;;12.22;65.93;95429.63;4788971;29;20090;-80
2023/10/29 00:49:25;;;;;;;3.33;1.83;;;;;;;12.24;64.76;95442.50;4789186;29;20112;-80
2023/10/29 00:51:54;;;;;;;2.17;1.65;;;;;;;12.27;69.34;95437.63;4789159;29;20400;-80
2023/10/29 00:54:22;;;;;;;3.25;2.20;;;;;;;12.29;68.95;95446.06;4788867;29;20138;-80
2023/10/29 00:56:52;;;;;;;3.63;1.90;;;;;;;12.29;66.12;95437.44;4788973;29;20476;-80
2023/10/29 00:59:21;;;;;;;4.55;2.28;;;;;;;12.28;65.42;95434.00;4788496;29;20051;-79
2023/10/29 01:01:48;;;;;;;3.88;2.00;;;;;;;12.29;64.49;95442.66;4788728;29;20059;-80
2023/10/29 01:04:16;;;;;;;4.00;2.20;;;;;;;12.27;64.54;95429.00;4802948;29;20043;-79
2023/10/29 01:06:46;;;;;;;6.45;2.53;;;;;;;12.24;64.31;95435.44;4811705;29;20079;-80
2023/10/29 01:09:15;;;;;;;3.65;1.65;;;;;;;12.24;65.60;95421.56;4801847;29;20142;-79
2023/10/29 01:11:43;;;;;;;4.10;2.03;;;;;;;12.22;64.06;95428.84;4788317;29;20059;-80
2023/10/29 01:14:11;;;;;;;2.72;2.15;;;;;;;12.22;66.04;95416.56;4796364;29;20055;-80
2023/10/29 01:16:39;;;;;;;5.60;1.88;;;;;;;12.21;64.69;95416.81;4790772;29;20146;-80
2023/10/29 01:19:06;;;;;;;5.63;2.17;;;;;;;12.20;64.27;95418.63;4788222;29;20492;-80
2023/10/29 01:21:34;;;;;;;5.03;3.00;;;;;;;12.21;66.71;95417.59;4788759;29;20090;-80
2023/10/29 01:24:02;;;;;;;3.38;1.95;;;;;;;12.19;65.02;95417.00;4788617;29;20142;-80
2023/10/29 01:26:32;;;;;;;3.30;2.20;;;;;;;12.17;66.06;95419.06;4787260;29;20551;-80
2023/10/29 01:29:01;;;;;;;3.60;1.95;;;;;;;12.15;65.55;95411.41;4786890;29;20082;-79
2023/10/29 01:31:29;;;;;;;3.05;1.85;;;;;;;12.16;65.22;95420.88;4786129;29;20153;-80
2023/10/29 01:33:57;;;;;;;5.35;2.13;;;;;;;12.18;65.06;95430.28;4787155;29;20112;-80
2023/10/29 01:36:24;;;;;;;4.60;2.00;;;;;;;12.23;68.02;95430.47;4787270;29;20495;-79
2023/10/29 01:38:52;;;;;;;2.58;1.58;;;;;;;12.22;65.20;95419.19;4787066;29;20142;-80
2023/10/29 01:41:20;;;;;;;2.88;1.83;;;;;;;12.23;67.36;95418.16;4787111;29;20086;-79
2023/10/29 01:43:49;;;;;;;2.78;1.98;;;;;;;12.25;65.54;95423.97;4788118;29;20405;-79
2023/10/29 01:46:17;;;;;;;5.60;1.77;;;;;;;12.27;64.27;95426.38;4787622;29;20591;-80
2023/10/29 01:48:44;;;;;;;4.55;1.63;;;;;;;12.26;64.61;95417.72;4787801;29;20051;-79
2023/10/29 01:51:12;;;;;;;4.25;1.77;;;;;;;12.29;63.39;95406.03;4788179;29;20059;-80
2023/10/29 01:53:40;;;;;;;4.05;1.70;;;;;;;12.28;62.53;95414.91;4787829;29;20090;-79
2023/10/29 01:56:08;;;;;;;2.95;1.45;;;;;;;12.28;62.68;95413.06;4787509;29;20436;-80
2023/10/29 01:58:36;;;;;;;3.15;1.40;;;;;;;12.28;63.11;95418.28;4787993;29;20146;-80
2023/10/29 02:01:10;;;;;;;3.15;1.73;;;;;;;12.29;62.03;95417.28;4788270;29;20146;-80
2023/10/29 02:03:38;;;;;;;4.55;1.90;;;;;;;12.28;62.04;95415.69;4790824;29;20055;-80
2023/10/29 02:06:15;;;;;;;4.18;1.98;;;;;;;12.29;67.33;95412.06;4787613;29;20083;-80
2023/10/29 02:08:43;;;;;;;3.88;1.63;;;;;;;12.29;65.55;95404.22;4787309;29;20055;-80
2023/10/29 02:11:10;;;;;;;2.67;1.83;;;;;;;12.29;64.39;95400.81;4787620;29;20051;-79
2023/10/29 02:13:38;;;;;;;2.17;1.27;;;;;;;12.28;63.04;95394.78;4787751;29;20126;-80
2023/10/29 02:16:06;;;;;;;2.35;1.40;;;;;;;12.25;62.22;95379.53;4787677;29;20090;-80
2023/10/29 02:18:35;;;;;;;3.78;1.45;;;;;;;12.22;62.55;95376.56;4787149;29;20509;-79
2023/10/29 02:21:03;;;;;;;3.78;1.60;;;;;;;12.20;62.19;95375.97;4787278;29;20059;-79
2023/10/29 02:23:34;;;;;;;4.05;1.92;;;;;;;12.13;62.36;95371.66;4787065;29;20063;-80
2023/10/29 02:26:01;;;;;;;5.45;1.90;;;;;;;12.07;62.36;95366.50;4787322;29;20055;-80
2023/10/29 02:28:29;;;;;;;4.15;1.67;;;;;;;11.99;62.80;95364.19;4787353;29;20077;-80
2023/10/29 02:30:56;;;;;;;3.20;2.10;;;;;;;11.97;63.36;95366.25;4787560;29;20051;-79
2023/10/29 02:33:24;;;;;;;5.03;2.17;;;;;;;11.97;65.48;95366.25;4787650;29;20098;-80
2023/10/29 02:35:51;;;;;;;2.83;1.63;;;;;;;11.97;64.35;95358.41;4787422;29;20495;-80
2023/10/29 02:38:19;;;;;;;2.97;1.58;;;;;;;11.92;63.46;95365.06;4787523;29;20437;-80
2023/10/29 02:40:48;;;;;;;2.40;1.58;;;;;;;11.82;62.91;95364.75;4787302;29;20087;-79
2023/10/29 02:43:17;;;;;;;2.55;1.50;;;;;;;11.75;63.04;95366.66;4788668;29;20082;-80
2023/10/29 02:45:44;;;;;;;2.95;1.55;;;;;;;11.68;63.16;95365.94;4791080;29;20114;-80
2023/10/29 02:48:12;;;;;;;2.53;1.80;;;;;;;11.61;63.10;95359.97;4790847;29;20059;-80
2023/10/29 02:50:39;;;;;;;4.85;2.10;;;;;;;11.58;64.00;95368.25;4790382;29;20086;-80
2023/10/29 02:53:07;;;;;;;3.50;1.67;;;;;;;11.56;63.81;95360.63;4791069;29;20063;-80
2023/10/29 02:55:35;;;;;;;4.43;1.77;;;;;;;11.54;63.61;95363.50;4791075;29;20055;-80
2023/10/29 02:58:03;;;;;;;3.88;1.70;;;;;;;11.52;64.72;95355.06;4790751;29;20058;-79
2023/10/29 03:00:31;;;;;;;3.92;1.75;;;;;;;11.51;65.51;95348.25;4790904;29;20058;-80
2023/10/29 03:02:59;;;;;;;4.60;1.60;;;;;;;11.47;64.09;95347.06;4790485;29;20138;-80
2023/10/29 03:05:27;;;;;;;4.13;1.83;;;;;;;11.44;64.00;95355.34;4790655;29;20089;-80
2023/10/29 03:07:54;;;;;;;3.40;1.65;;;;;;;11.43;63.47;95345.13;4790911;29;20055;-80
2023/10/29 03:10:22;;;;;;;6.47;2.10;;;;;;;11.42;63.66;95346.94;4791887;29;20055;-80
2023/10/29 03:12:49;;;;;;;2.85;1.70;;;;;;;11.40;63.78;95338.53;4790289;29;20500;-79
2023/10/29 03:15:18;;;;;;;1.73;1.27;;;;;;;11.41;63.60;95334.88;4790219;29;20154;-79
2023/10/29 03:17:46;;;;;;;4.78;2.03;;;;;;;11.42;63.27;95333.09;4790327;29;20059;-79
2023/10/29 03:20:16;;;;;;;2.53;1.55;;;;;;;11.41;63.44;95319.22;4790228;29;20086;-79
2023/10/29 03:22:43;;;;;;;2.70;1.45;;;;;;;11.42;63.09;95315.59;4793953;29;20066;-79
2023/10/29 03:25:11;;;;;;;2.65;1.48;;;;;;;11.42;62.84;95326.06;4797080;29;20055;-80
2023/10/29 03:27:39;;;;;;;1.55;1.45;;;;;;;11.41;62.91;95327.06;4789967;29;20063;-79
2023/10/29 03:30:08;;;;;;;3.42;1.35;;;;;;;11.42;63.27;95335.69;4790184;29;20047;-80
2023/10/29 03:32:37;;;;;;;5.20;1.65;;;;;;;11.42;63.17;95344.31;4790046;29;20142;-80
2023/10/29 03:35:05;;;;;;;3.00;1.73;;;;;;;11.40;63.64;95338.53;4790353;29;20138;-80
2023/10/29 03:37:33;;;;;;;3.17;1.80;;;;;;;11.42;63.40;95331.28;4790172;29;20416;-80
2023/10/29 03:40:01;;;;;;;3.55;1.50;;;;;;;11.40;63.17;95332.50;4790152;29;20059;-80
2023/10/29 03:42:28;;;;;;;4.47;1.33;;;;;;;11.35;63.33;95333.16;4790010;29;20512;-80
2023/10/29 03:44:56;;;;;;;3.13;1.60;;;;;;;11.30;63.40;95330.38;4789763;29;20094;-80
2023/10/29 03:47:23;;;;;;;5.43;2.13;;;;;;;11.26;63.38;95331.84;4790681;29;20163;-80
2023/10/29 03:49:52;;;;;;;5.43;1.50;;;;;;;11.25;63.59;95338.09;4789920;29;20086;-80
2023/10/29 03:52:20;;;;;;;2.53;1.40;;;;;;;11.23;63.65;95334.88;4789945;29;20082;-80
2023/10/29 03:54:48;;;;;;;3.47;2.05;;;;;;;11.21;63.60;95334.31;4789000;29;20144;-80
2023/10/29 03:57:15;;;;;;;1.77;1.58;;;;;;;11.18;63.69;95326.91;4789552;29;20055;-80
2023/10/29 03:59:44;;;;;;;3.63;1.65;;;;;;;11.14;63.75;95336.97;4789725;29;20130;-80
2023/10/29 04:02:11;;;;;;;5.85;1.60;;;;;;;11.10;63.80;95320.94;4789698;29;20055;-80
2023/10/29 04:04:39;;;;;;;2.00;1.60;;;;;;;11.06;63.90;95319.81;4789552;29;20495;-80
2023/10/29 04:07:11;;;;;;;2.92;1.55;;;;;;;11.05;64.08;95323.41;4789789;29;20142;-80
2023/10/29 04:09:39;;;;;;;4.97;1.70;;;;;;;11.03;63.93;95312.41;4789360;29;20083;-80
2023/10/29 04:12:07;;;;;;;1.65;1.30;;;;;;;11.00;64.10;95306.78;4789754;29;20134;-80
2023/10/29 04:14:35;;;;;;;3.40;1.77;;;;;;;10.96;64.40;95310.88;4789424;29;20058;-80
2023/10/29 04:17:02;;;;;;;2.63;1.90;;;;;;;10.93;64.44;95312.09;4798476;29;20095;-80
2023/10/29 04:19:30;;;;;;;5.03;2.22;;;;;;;10.89;64.55;95313.56;4813018;29;20074;-80
2023/10/29 04:21:58;;;;;;;3.67;1.85;;;;;;;10.83;64.47;95306.56;4807100;29;20527;-80
2023/10/29 04:24:28;;;;;;;5.07;1.77;;;;;;;10.80;65.04;95320.03;4790624;30;20090;-80
2023/10/29 04:26:55;;;;;;;4.72;2.28;;;;;;;10.79;64.93;95319.25;4789539;29;20078;-79
2023/10/29 04:29:23;;;;;;;2.70;1.90;;;;;;;10.77;64.86;95295.19;4789025;29;20086;-79
2023/10/29 04:31:50;;;;;;;2.58;1.80;;;;;;;10.74;65.16;95292.22;4789062;29;20423;-80
2023/10/29 04:34:18;;;;;;;4.43;2.20;;;;;;;10.70;65.15;95290.03;4788882;29;20149;-80
2023/10/29 04:36:48;;;;;;;3.58;1.50;;;;;;;10.66;65.28;95278.41;4788561;29;20059;-79
2023/10/29 04:39:15;;;;;;;3.42;1.67;;;;;;;10.62;65.56;95298.09;4788752;29;20055;-79
2023/10/29 04:41:45;;;;;;;3.50;2.08;;;;;;;10.62;65.61;95297.31;4788902;29;20051;-79
2023/10/29 04:44:13;;;;;;;3.55;1.90;;;;;;;10.60;65.99;95300.13;4788483;29;20583;-79
2023/10/29 04:46:41;;;;;;;4.70;2.00;;;;;;;10.60;66.08;95300.13;4790147;29;20142;-78
2023/10/29 04:49:08;;;;;;;2.33;2.05;;;;;;;10.61;65.69;95296.53;4789021;29;20059;-80
2023/10/29 04:51:36;;;;;;;1.88;1.67;;;;;;;10.61;65.42;95288.72;4789376;29;20056;-80
2023/10/29 04:54:04;;;;;;;3.38;1.95;;;;;;;10.66;68.64;95294.06;4788859;29;20094;-79
2023/10/29 04:56:33;;;;;;;2.97;2.17;;;;;;;10.72;67.18;95295.03;4788878;29;20417;-79
2023/10/29 04:59:02;;;;;;;4.25;2.30;;;;;;;10.71;65.89;95290.81;4788958;29;20540;-80
2023/10/29 05:01:30;;;;;;;3.08;1.90;;;;;;;10.67;65.84;95280.03;4788800;29;20051;-79
2023/10/29 05:03:57;;;;;;;4.13;2.20;;;;;;;10.63;66.67;95289.28;4788467;29;20055;-80
2023/10/29 05:06:25;;;;;;;3.78;2.08;;;;;;;10.61;66.20;95286.09;4787874;29;20060;-79
2023/10/29 05:08:53;;;;;;;4.25;1.80;;;;;;;10.57;66.52;95269.28;4788939;29;20229;-80
2023/10/29 05:11:21;;;;;;;3.85;2.15;;;;;;;10.55;66.42;95268.69;4788868;29;20097;-80
2023/10/29 05:13:49;;;;;;;4.63;1.83;;;;;;;10.55;66.25;95270.50;4788734;29;20142;-80
2023/10/29 05:16:20;;;;;;;5.38;2.17;;;;;;;10.54;65.84;95268.91;4788380;29;20134;-79
2023/10/29 05:18:47;;;;;;;2.35;1.70;;;;;;;10.55;65.88;95266.09;4788530;29;20055;-79
2023/10/29 05:21:15;;;;;;;3.05;1.77;;;;;;;10.53;65.53;95275.94;4788678;29;20062;-80
2023/10/29 05:23:43;;;;;;;3.55;1.92;;;;;;;10.53;65.74;95283.75;4788794;29;20051;-80
2023/10/29 05:26:10;;;;;;;2.88;1.75;;;;;;;10.54;65.47;95261.91;4788294;29;20082;-79
2023/10/29 05:28:38;;;;;;;2.72;1.80;;;;;;;10.56;65.81;95261.66;4788372;29;20051;-79
2023/10/29 05:31:06;;;;;;;6.88;2.22;;;;;;;10.52;65.41;95251.69;4799525;29;20079;-79
2023/10/29 05:33:37;;;;;;;3.63;1.88;;;;;;;10.53;65.48;95278.53;4788702;29;20085;-79
2023/10/29 05:36:18;;;;;;;3.00;1.77;;;;;;;10.54;65.08;95264.50;4780747;29;20073;-79
2023/10/29 05:38:46;;;;;;;3.47;1.90;;;;;;;10.61;69.44;95286.09;4776655;29;20121;-79
2023/10/29 05:41:14;;;;;;;5.32;2.42;;;;;;;10.65;67.23;95266.41;4769647;30;20146;-78
2023/10/29 05:43:42;;;;;;;3.28;1.83;;;;;;;10.67;66.38;95277.44;4787672;29;20055;-80
2023/10/29 05:46:13;;;;;;;2.95;1.73;;;;;;;10.67;65.89;95284.44;4787945;29;20116;-79
2023/10/29 05:48:43;;;;;;;3.80;1.88;;;;;;;10.66;66.00;95288.06;4784984;29;20082;-79
2023/10/29 05:51:12;;;;;;;4.50;2.20;;;;;;;10.64;65.92;95295.31;4769615;30;20062;-80
2023/10/29 05:53:41;;;;;;;4.53;1.73;;;;;;;10.62;66.22;95292.91;4771724;29;20059;-79
2023/10/29 05:56:08;;;;;;;4.00;1.75;;;;;;;10.63;66.11;95302.34;4769614;30;20782;-77
2023/10/29 05:58:37;;;;;;;5.80;2.22;;;;;;;10.62;65.73;95299.94;4787351;30;20059;-79
2023/10/29 06:01:07;;;;;;;2.92;1.77;;;;;;;10.62;65.82;95332.00;4787474;29;20420;-78
2023/10/29 06:03:35;;;;;;;3.72;1.70;;;;;;;10.62;65.34;95326.78;4787507;29;20062;-80
2023/10/29 06:06:06;;;;;;;5.60;1.98;;;;;;;10.64;64.75;95337.03;4786974;29;20489;-78
2023/10/29 06:08:36;;;;;;;1.40;1.30;;;;;;;10.67;64.25;95331.38;4784197;29;20117;-79
2023/10/29 06:11:05;;;;;;;2.97;1.40;;;;;;;10.74;64.45;95349.59;4769481;30;20070;-79
2023/10/29 06:13:33;;;;;;;3.33;1.83;;;;;;;10.78;64.29;95333.31;4769362;30;20063;-78
2023/10/29 06:16:07;;;;;;;1.88;1.67;;;;;;;10.82;63.58;95339.69;4769178;30;20488;-78
2023/10/29 06:18:36;;;;;;;4.05;1.90;;;;;;;10.83;63.65;95335.28;4769118;30;20059;-78
2023/10/29 06:21:06;;;;;;;2.15;1.80;;;;;;;10.82;63.46;95333.66;4769638;30;20083;-78
2023/10/29 06:23:34;;;;;;;2.70;1.90;;;;;;;10.82;65.23;95328.44;4769338;30;20059;-78
2023/10/29 06:26:08;;;;;;;2.88;1.75;;;;;;;10.81;63.91;95339.91;4781326;30;20146;-77
2023/10/29 06:28:36;;;;;;;3.35;2.35;;;;;;;10.82;64.04;95329.25;4787094;29;20051;-78
2023/10/29 06:31:05;;;;;;;2.92;1.63;;;;;;;10.81;64.26;95306.78;4779259;29;20414;-78
2023/10/29 06:33:33;;;;;;;4.03;1.98;;;;;;;10.80;63.68;95302.59;4768923;30;20063;-78
2023/10/29 06:36:01;;;;;;;4.70;2.38;;;;;;;10.78;64.27;95311.63;4768732;30;20113;-77
2023/10/29 06:38:29;;;;;;;4.47;2.50;;;;;;;10.72;64.32;95334.16;4769155;30;20059;-77
2023/10/29 06:40:57;;;;;;;3.17;2.05;;;;;;;10.63;64.70;95320.59;4768980;30;20055;-77
2023/10/29 06:43:25;;;;;;;3.75;2.28;;;;;;;10.55;65.04;95318.22;4769118;30;20144;-78
2023/10/29 06:45:52;;;;;;;3.63;1.88;;;;;;;10.49;65.39;95308.66;4768951;30;20052;-77
2023/10/29 06:48:21;;;;;;;3.85;2.10;;;;;;;10.44;65.18;95311.09;4770043;30;20059;-78
2023/10/29 06:50:49;;;;;;;2.95;1.88;;;;;;;10.43;65.19;95304.28;4769210;30;20142;-78
2023/10/29 06:53:17;;;;;;;5.15;2.20;;;;;;;10.47;65.16;95316.72;4768968;30;20058;-78
2023/10/29 06:55:47;;;;;;;4.20;2.17;;;;;;;10.53;65.19;95320.25;4768568;30;20428;-77
2023/10/29 06:58:15;;;;;;;2.70;1.85;;;;;;;10.57;64.87;95326.66;4768769;29;20058;-78
2023/10/29 07:00:42;;;;;;;2.05;1.60;;;;;;;10.65;64.82;95326.38;4768708;30;20087;-77
2023/10/29 07:03:10;;;;;;;3.40;1.98;;;;;;;10.72;64.78;95329.72;4768856;30;20061;-77
2023/10/29 07:05:38;;;;;;;2.17;1.60;;;;;;;10.80;64.43;95333.06;4768812;30;20055;-78
2023/10/29 07:08:05;;;;;;;3.25;1.83;;;;;;;10.86;64.18;95329.63;4769115;30;20055;-78
2023/10/29 07:10:33;;;;;;;2.33;2.13;;;;;;;10.92;64.26;95328.75;4768762;30;20524;-77
2023/10/29 07:13:02;;;;;;;3.03;2.33;;;;;;;10.95;64.07;95327.53;4784506;30;20527;-77
2023/10/29 07:15:30;;;;;;;2.30;2.10;;;;;;;10.97;64.09;95336.72;4786815;29;20493;-79
2023/10/29 07:17:59;;;;;;;4.35;2.67;;;;;;;10.99;64.08;95337.31;4787367;29;20112;-78
2023/10/29 07:20:27;;;;;;;4.47;2.22;;;;;;;11.02;64.15;95334.28;4786822;29;20425;-79
2023/10/29 07:22:55;;;;;;;3.20;1.67;;;;;;;11.06;63.97;95350.31;4786778;29;20058;-78
2023/10/29 07:25:23;;;;;;;3.05;1.70;;;;;;;11.12;63.62;95375.53;4786662;29;20097;-77
2023/10/29 07:27:50;;;;;;;2.50;1.83;;;;;;;11.14;63.59;95384.75;4786808;29;20482;-79
2023/10/29 07:30:19;;;;;;;3.25;1.83;;;;;;;11.21;65.06;95391.72;4803932;29;20055;-79
2023/10/29 07:32:46;;;;;;;2.10;1.10;;;;;;;11.29;63.50;95384.41;4795322;29;20035;-79
2023/10/29 07:35:14;;;;;;;1.88;1.70;;;;;;;11.37;63.15;95388.56;4786811;30;20086;-79
2023/10/29 07:37:43;;;;;;;7.00;2.03;;;;;;;11.45;63.11;95380.44;4778134;30;20094;-79
2023/10/29 07:40:10;;;;;;;2.08;1.52;;;;;;;11.50;64.61;95388.44;4772213;30;20066;-79
2023/10/29 07:42:38;;;;;;;1.58;1.40;;;;;;;11.56;64.12;95376.31;4772251;30;20490;-76
2023/10/29 07:45:07;;;;;;;2.50;1.52;;;;;;;11.61;65.11;95376.47;4772061;30;20147;-79
2023/10/29 07:47:36;;;;;;;5.72;1.65;;;;;;;11.68;62.81;95390.25;4772839;30;20051;-78
2023/10/29 07:50:06;;;;;;;2.40;1.50;;;;;;;11.76;63.06;95381.31;4771631;30;20531;-78
2023/10/29 07:52:39;;;;;;;2.95;1.90;;;;;;;11.83;62.58;95387.28;4781742;30;20568;-78
2023/10/29 07:55:08;;;;;;;3.17;1.67;;;;;;;11.91;65.80;95386.97;4789354;29;20082;-78
2023/10/29 07:57:35;;;;;;;6.22;2.85;;;;;;;11.97;63.05;95395.78;4789462;29;20509;-79
2023/10/29 08:00:04;;;;;;;3.33;1.95;;;;;;;12.00;62.35;95381.47;4789345;29;20193;-78
2023/10/29 08:02:31;;;;;;;5.32;2.47;;;;;;;12.02;62.30;95372.38;4789780;29;20108;-78
2023/10/29 08:05:00;;;;;;;3.17;2.05;;;;;;;12.05;62.69;95377.19;4789600;29;20136;-78
2023/10/29 08:07:28;;;;;;;3.00;1.83;;;;;;;12.09;62.02;95380.13;4789494;29;20094;-79
2023/10/29 08:09:57;;;;;;;4.93;2.33;;;;;;;12.11;61.91;95372.88;4789301;29;20142;-79
2023/10/29 08:12:25;;;;;;;3.83;1.83;;;;;;;12.13;61.57;95381.28;4789396;29;20051;-79
2023/10/29 08:14:52;;;;;;;3.00;1.67;;;;;;;12.16;61.57;95386.88;4789611;29;20059;-78
2023/10/29 08:17:21;;;;;;;5.72;2.45;;;;;;;12.21;61.38;95386.22;4789133;29;20079;-78
2023/10/29 08:19:48;;;;;;;2.40;1.83;;;;;;;12.23;61.49;95386.81;4788790;29;20406;-79
2023/10/29 08:22:18;;;;;;;4.22;2.47;;;;;;;12.25;61.54;95395.22;4789352;29;20123;-78
2023/10/29 08:24:45;;;;;;;4.03;2.35;;;;;;;12.27;61.70;95387.16;4789408;29;20055;-78
2023/10/29 08:27:16;;;;;;;7.97;3.65;;;;;;;12.27;61.52;95393.19;4788911;29;20051;-79
2023/10/29 08:29:49;;;;;;;9.07;3.92;;;;;;;12.26;62.03;95391.56;4789057;29;20509;-78
2023/10/29 08:32:17;;;;;;;5.25;3.08;;;;;;;12.27;63.06;95398.41;4771925;29;20064;-78
2023/10/29 08:34:45;;;;;;;4.03;2.33;;;;;;;12.28;62.15;95405.22;4771196;30;20113;-78
2023/10/29 08:37:13;;;;;;;2.65;1.55;;;;;;;12.27;62.23;95398.41;4782327;30;20079;-79
2023/10/29 08:39:43;;;;;;;2.42;1.55;;;;;;;12.28;62.17;95393.97;4788662;29;20431;-79
2023/10/29 08:42:11;;;;;;;2.85;2.00;;;;;;;12.28;62.14;95393.97;4788447;29;20075;-79
2023/10/29 08:44:38;;;;;;;2.85;1.70;;;;;;;12.29;61.92;95391.16;4788317;29;20051;-79
2023/10/29 08:47:06;;;;;;;2.42;1.73;;;;;;;12.32;61.92;95389.91;4789048;29;20063;-79
2023/10/29 08:49:34;;;;;;;1.92;1.70;;;;;;;12.34;62.04;95393.09;4788572;29;20202;-79
2023/10/29 08:52:02;;;;;;;3.78;1.90;;;;;;;12.33;61.90;95384.47;4782164;29;20079;-80
2023/10/29 08:54:29;;;;;;;2.40;1.65;;;;;;;12.32;61.80;95379.44;4770514;30;20056;-77
2023/10/29 08:56:59;;;;;;;1.65;1.45;;;;;;;12.32;61.93;95389.91;4770243;30;20059;-78
2023/10/29 08:59:27;;;;;;;2.08;1.50;;;;;;;12.33;61.82;95397.53;4770340;30;20067;-78
2023/10/29 09:01:54;;;;;;;4.63;2.30;;;;;;;12.36;61.93;95397.06;4770352;30;20060;-78
2023/10/29 09:04:22;;;;;;;2.22;1.92;;;;;;;12.39;61.87;95389.81;4770138;30;20146;-78
2023/10/29 09:06:50;;;;;;;3.90;2.05;;;;;;;12.44;62.32;95395.16;4770052;30;20105;-78
2023/10/29 09:09:18;;;;;;;4.40;1.92;;;;;;;12.48;62.49;95404.94;4770046;30;20055;-77
2023/10/29 09:11:46;;;;;;;2.40;1.58;;;;;;;12.51;61.98;95401.13;4770443;30;20052;-76
2023/10/29 09:14:16;;;;;;;3.40;1.63;;;;;;;12.54;61.95;95404.06;4770841;30;20086;-79
2023/10/29 09:16:47;;;;;;;2.83;1.52;;;;;;;12.55;61.78;95412.72;4771140;30;20493;-79
2023/10/29 09:19:16;;;;;;;4.83;1.97;;;;;;;12.56;62.25;95407.25;4770326;30;20060;-78
2023/10/29 09:21:44;;;;;;;5.50;2.28;;;;;;;12.57;62.31;95413.28;4770171;30;20433;-79
2023/10/29 09:24:12;;;;;;;3.75;1.30;;;;;;;12.58;62.31;95409.66;4770631;30;20062;-79
2023/10/29 09:26:40;;;;;;;2.10;1.90;;;;;;;12.61;62.32;95411.81;4770194;30;20505;-79
2023/10/29 09:29:09;;;;;;;3.53;2.05;;;;;;;12.63;62.41;95422.06;4770377;30;20056;-79
2023/10/29 09:31:38;;;;;;;1.77;1.45;;;;;;;12.64;62.35;95414.00;4781951;30;20134;-79
2023/10/29 09:34:05;;;;;;;3.72;2.05;;;;;;;12.66;62.23;95416.38;4788623;29;20059;-79
2023/10/29 09:36:33;;;;;;;2.90;1.70;;;;;;;12.69;61.97;95411.50;4787850;29;20644;-78
2023/10/29 09:39:01;;;;;;;2.63;1.60;;;;;;;12.74;61.72;95413.44;4788960;29;20691;-79
2023/10/29 09:41:32;;;;;;;4.45;1.80;;;;;;;12.80;61.69;95411.75;4802001;29;20066;-79
2023/10/29 09:44:02;;;;;;;3.42;2.20;;;;;;;12.86;61.74;95411.66;4789288;29;20051;-79
2023/10/29 09:46:38;;;;;;;2.97;2.25;;;;;;;12.98;62.12;95414.28;4790425;29;20086;-80
2023/10/29 09:49:06;;;;;;;3.42;2.35;;;;;;;13.08;62.27;95427.63;4789580;29;20059;-78
2023/10/29 09:51:40;;;;;;;3.35;2.20;;;;;;;13.19;62.84;95432.06;4789830;29;20063;-78
2023/10/29 10:05:43;;;;;;;4.90;2.30;;;;;;;13.67;61.28;95453.09;5514783;24;20053;-81
2023/10/29 10:08:33;;;;;;;3.15;1.70;;;;;;;13.82;61.24;95456.03;4963164;24;20057;-78
2023/10/29 10:11:02;;;;;;;3.72;1.92;;;;;;;13.93;61.13;95446.56;4837286;29;20054;-77
2023/10/29 10:13:37;;;;;;;5.70;2.72;;;;;;;14.01;60.55;95439.13;4823897;29;20235;-77
2023/10/29 10:16:11;;;;;;;4.43;2.45;;;;;;;14.10;60.16;95436.13;4823502;29;20062;-78
2023/10/29 10:18:54;;;;;;;3.28;2.15;;;;;;;14.18;60.40;95427.91;4839538;29;20057;-78
2023/10/29 10:21:23;;;;;;;;;;;;;;;14.25;60.44;95428.56;4861114;29;20057;-79
2023/10/29 10:23:55;;;;;;;5.03;1.90;;;;;;;14.30;60.34;95423.41;4860283;29;19924;-79
2023/10/29 10:26:30;;;;;;;3.63;2.08;;;;;;;14.34;61.64;95444.72;4863585;29;20145;-79
2023/10/29 10:29:00;;;;;;;2.20;2.00;;;;;;;14.38;63.71;95444.00;4843542;29;20426;-79
2023/10/29 10:31:28;;;;;;;4.30;2.60;;;;;;;14.42;62.96;95426.00;4842475;29;20089;-79
2023/10/29 10:34:11;;;;;;;3.22;2.35;;;;;;;14.54;60.93;95431.19;4842082;29;20057;-78
2023/10/29 10:36:39;;;;;;;4.45;2.58;;;;;;;14.66;61.15;95442.47;4842112;29;20422;-80
2023/10/29 10:39:08;;;;;;;3.33;2.35;;;;;;;14.81;61.94;95442.72;4848661;29;20050;-78
2023/10/29 10:41:41;;;;;;;3.38;2.47;;;;;;;14.97;66.24;95435.91;4861974;29;20058;-78
2023/10/29 10:44:11;;;;;;;4.10;3.13;;;;;;;15.04;61.47;95414.72;4855769;29;20114;-78
2023/10/29 10:46:42;;;;;;;4.53;2.80;;;;;;;15.09;60.43;95412.19;4842427;29;20495;-78
2023/10/29 10:49:12;;;;;;;3.97;2.80;;;;;;;15.15;59.81;95400.75;4843424;29;20138;-78
2023/10/29 10:51:40;;;;;;;6.18;2.20;;;;;;;15.24;59.52;95404.56;4841251;29;20057;-77
2023/10/29 10:54:10;;;;;;;3.55;2.15;;;;;;;15.31;61.52;95399.13;4841461;29;20092;-77
2023/10/29 10:56:38;;;;;;;5.68;2.50;;;;;;;15.35;60.33;95408.13;4835853;29;20050;-77
2023/10/29 10:59:08;;;;;;;2.17;1.98;;;;;;;15.37;59.16;95392.91;4823150;29;20058;-77
2023/10/29 11:01:37;;;;;;;2.80;2.03;;;;;;;15.41;59.07;95387.97;4840352;29;20140;-77
2023/10/29 11:04:08;;;;;;;5.65;2.60;;;;;;;15.43;58.60;95375.38;4835875;29;20488;-76
2023/10/29 11:06:37;;;;;;;5.30;2.65;;;;;;;15.44;60.51;95375.16;4826233;29;20054;-78
2023/10/29 11:09:12;;;;;;;3.08;2.10;;;;;;;15.46;60.82;95372.28;4826296;29;20111;-77
2023/10/29 11:11:47;;;;;;;2.00;1.80;;;;;;;15.52;58.50;95358.16;4826824;29;20107;-77
2023/10/29 11:14:16;;;;;;;2.80;1.60;;;;;;;15.60;58.30;95349.06;4837201;29;20057;-77
2023/10/29 11:16:48;;;;;;;4.00;1.58;;;;;;;15.65;58.70;95349.94;4844554;29;20060;-77
2023/10/29 11:19:42;;;;;;;2.72;2.15;;;;;;;15.68;58.24;95351.28;4844703;29;20089;-78
2023/10/29 11:22:14;;;;;;;4.30;1.73;;;;;;;15.68;57.28;95346.00;4844608;29;20490;-77
2023/10/29 11:24:42;;;;;;;;;;;;;;;15.72;57.75;95346.34;4845352;29;20054;-78
2023/10/29 11:27:37;;;;;;;2.88;2.03;;;;;;;15.74;58.50;95339.00;4844737;29;20011;-78
2023/10/29 11:30:13;;;;;;;2.67;1.92;;;;;;;15.75;58.22;95336.13;4844647;29;20054;-79
2023/10/29 11:32:41;;;;;;;4.68;1.48;;;;;;;15.80;60.30;95332.75;4844698;29;20050;-77
2023/10/29 11:35:19;;;;;;;2.38;1.80;;;;;;;15.86;59.70;95326.53;4851603;29;20050;-78
2023/10/29 11:37:48;;;;;;;3.70;1.95;;;;;;;15.86;59.13;95310.75;4862477;29;20057;-77
2023/10/29 11:40:37;;;;;;;3.67;1.63;;;;;;;15.85;59.94;95311.78;4861719;29;20106;-77
2023/10/29 11:43:22;;;;;;;1.92;1.42;;;;;;;15.86;59.26;95322.06;4825163;29;20438;-78
2023/10/29 11:46:00;;;;;;;3.17;1.85;;;;;;;15.87;57.88;95312.31;4844652;29;20050;-77
2023/10/29 11:48:30;;;;;;;2.47;2.28;;;;;;;15.90;59.71;95322.38;4826376;29;20111;-77
2023/10/29 11:51:20;;;;;;;4.28;2.10;;;;;;;16.03;60.33;95329.88;4825462;29;20054;-77
2023/10/29 11:53:48;;;;;;;2.67;1.65;;;;;;;16.27;58.78;95348.81;4825759;29;20090;-78